Tow Law, United Kingdom
Current Conditions -  °F | °C
As of 2:50 PM on Tuesday 21 Oct 2014 (Local Time) from EGNT Reporting Station
Few Clouds Few Clouds  
Wind Chill: 50°   Ceiling: Unl
Heat Index: 50°   Visibility: 6mi
Dew Point: 34°   Wind: 28mph
Humidity: 54%   Direction: 300°WNW
Pressure: 29.5"   Gusts: 41mph
Location:  54.74°N, 1.81°W
Report Text: EGNT 211350Z 30024G36KT 9999 FEW034 10/01 Q0999
Loading
Personal Weather Stations






























Interactive Weather Map
Tropical Storm Tracking
New forecast layout! Learn more

10-Day Weather Forecast

Advertisements
Track Severe Weather on mobile